createdAt,value
2023-05-10T00:01:31.814Z,8.90
2023-05-10T00:03:41.684Z,8.90
2023-05-10T00:05:50.422Z,8.90
2023-05-10T00:07:58.966Z,8.90
2023-05-10T00:10:09.918Z,8.90
2023-05-10T00:12:18.642Z,8.90
2023-05-10T00:14:27.115Z,8.90
2023-05-10T00:16:35.784Z,8.90
2023-05-10T00:18:44.392Z,8.80
2023-05-10T00:20:53.408Z,8.80
2023-05-10T00:23:02.335Z,8.80
2023-05-10T00:25:14.454Z,8.70
2023-05-10T00:27:23.403Z,8.70
2023-05-10T00:29:32.794Z,8.60
2023-05-10T00:31:41.100Z,8.50
2023-05-10T00:33:49.914Z,8.50
2023-05-10T00:35:58.688Z,8.50
2023-05-10T00:38:07.144Z,8.50
2023-05-10T00:40:17.948Z,8.50
2023-05-10T00:42:26.920Z,8.40
2023-05-10T00:44:35.567Z,8.30
2023-05-10T00:46:44.569Z,8.30
2023-05-10T00:48:53.360Z,8.30
2023-05-10T00:51:02.852Z,8.30
2023-05-10T00:53:12.638Z,8.20
2023-05-10T00:55:23.147Z,8.20
2023-05-10T00:57:31.616Z,8.20
2023-05-10T00:59:39.949Z,8.20
2023-05-10T01:01:49.270Z,8.20
2023-05-10T01:03:58.352Z,8.10
2023-05-10T01:06:08.769Z,8.10
2023-05-10T01:08:17.333Z,8.10
2023-05-10T01:10:27.606Z,8.00
2023-05-10T01:12:37.323Z,8.00
2023-05-10T01:14:46.110Z,7.90
2023-05-10T01:16:55.802Z,7.90
2023-05-10T01:19:06.349Z,7.90
2023-05-10T01:21:21.729Z,7.90
2023-05-10T01:23:53.766Z,7.90
2023-05-10T01:26:26.082Z,7.90
2023-05-10T01:28:50.857Z,7.80
2023-05-10T01:31:33.740Z,7.70
2023-05-10T01:33:49.784Z,7.60
2023-05-10T01:36:15.668Z,7.60
2023-05-10T01:38:32.597Z,7.60
2023-05-10T01:40:49.159Z,7.60
2023-05-10T01:43:03.912Z,7.60
2023-05-10T01:45:20.637Z,7.50
2023-05-10T01:47:37.783Z,7.40
2023-05-10T01:49:52.345Z,7.40
2023-05-10T01:52:06.436Z,7.30
2023-05-10T01:54:17.868Z,7.40
2023-05-10T01:56:29.057Z,7.30
2023-05-10T01:58:41.257Z,7.20
2023-05-10T02:00:52.151Z,7.20
2023-05-10T02:03:02.536Z,7.30
2023-05-10T02:05:15.875Z,7.30
2023-05-10T02:07:25.726Z,7.20
2023-05-10T02:09:36.730Z,7.20
2023-05-10T02:11:46.170Z,7.20
2023-05-10T02:13:57.430Z,7.20
2023-05-10T02:16:07.523Z,7.20
2023-05-10T02:18:17.849Z,7.20
2023-05-10T02:20:28.804Z,7.20
2023-05-10T02:22:39.834Z,7.10
2023-05-10T02:24:49.840Z,7.10
2023-05-10T02:26:59.863Z,7.10
2023-05-10T02:29:10.630Z,7.00
2023-05-10T02:31:20.684Z,6.90
2023-05-10T02:33:30.244Z,6.90
2023-05-10T02:35:41.486Z,7.00
2023-05-10T02:37:51.871Z,6.90
2023-05-10T02:40:01.859Z,6.90
2023-05-10T02:42:11.543Z,6.70
2023-05-10T02:44:22.297Z,6.90
2023-05-10T02:46:31.149Z,6.70
2023-05-10T02:48:39.743Z,6.70
2023-05-10T02:50:52.571Z,6.70
2023-05-10T02:53:04.248Z,6.70
2023-05-10T02:55:17.076Z,6.60
2023-05-10T02:57:34.837Z,6.60
2023-05-10T02:59:43.955Z,6.60
2023-05-10T03:01:52.654Z,6.50
2023-05-10T03:04:01.398Z,6.60
2023-05-10T03:06:11.624Z,6.60
2023-05-10T03:08:20.357Z,6.60
2023-05-10T03:10:31.646Z,6.70
2023-05-10T03:12:59.509Z,6.70
2023-05-10T03:15:16.363Z,6.70
2023-05-10T03:17:31.662Z,6.60
2023-05-10T03:19:48.439Z,6.50
2023-05-10T03:22:06.062Z,6.50
2023-05-10T03:24:16.883Z,6.70
2023-05-10T03:26:29.717Z,6.70
2023-05-10T03:28:39.324Z,6.80
2023-05-10T03:30:48.560Z,6.90
2023-05-10T03:32:58.111Z,7.00
2023-05-10T03:35:10.005Z,7.00
2023-05-10T03:37:20.053Z,7.00
2023-05-10T03:39:28.600Z,7.00
2023-05-10T03:41:36.961Z,6.90
2023-05-10T03:43:45.546Z,7.00
2023-05-10T03:45:54.237Z,7.00
2023-05-10T03:48:03.141Z,7.00
2023-05-10T03:50:12.320Z,7.10
2023-05-10T03:52:22.816Z,7.30
2023-05-10T03:54:31.646Z,7.40
2023-05-10T03:56:40.509Z,7.40
2023-05-10T03:58:49.327Z,7.50
2023-05-10T04:00:57.633Z,7.50
2023-05-10T04:03:06.232Z,7.60
2023-05-10T04:05:15.111Z,7.60
2023-05-10T04:07:25.307Z,7.60
2023-05-10T04:09:34.134Z,7.70
2023-05-10T04:11:43.009Z,7.80
2023-05-10T04:13:51.514Z,7.90
2023-05-10T04:16:00.213Z,8.00
2023-05-10T04:18:09.226Z,8.00
2023-05-10T04:20:17.816Z,8.00
2023-05-10T04:22:28.902Z,8.10
2023-05-10T04:24:37.733Z,8.20
2023-05-10T04:26:46.655Z,8.30
2023-05-10T04:28:55.203Z,8.30
2023-05-10T04:31:04.857Z,8.40
2023-05-10T04:33:13.531Z,8.50
2023-05-10T04:35:22.558Z,8.60
2023-05-10T04:37:32.600Z,8.60
2023-05-10T04:39:42.336Z,8.60
2023-05-10T04:41:51.242Z,8.70
2023-05-10T04:43:59.583Z,8.80
2023-05-10T04:46:08.742Z,8.90
2023-05-10T04:48:17.522Z,8.90
2023-05-10T04:50:26.084Z,9.10
2023-05-10T04:52:37.425Z,9.20
2023-05-10T04:54:45.928Z,9.20
2023-05-10T04:56:54.959Z,9.30
2023-05-10T04:59:04.795Z,9.40
2023-05-10T05:01:13.628Z,9.40
2023-05-10T05:03:22.170Z,9.60
2023-05-10T05:05:30.658Z,9.70
2023-05-10T05:07:41.369Z,9.70
2023-05-10T05:09:50.314Z,9.80
2023-05-10T05:11:58.734Z,9.80
2023-05-10T05:14:07.160Z,9.90
2023-05-10T05:16:16.249Z,10.00
2023-05-10T05:18:24.785Z,10.10
2023-05-10T05:20:35.454Z,10.10
2023-05-10T05:22:45.381Z,10.20
2023-05-10T05:24:54.052Z,10.30
2023-05-10T05:27:02.855Z,10.40
2023-05-10T05:29:11.733Z,10.40
2023-05-10T05:31:20.564Z,10.50
2023-05-10T05:33:28.866Z,10.60
2023-05-10T05:35:37.741Z,10.80
2023-05-10T05:37:47.747Z,10.80
2023-05-10T05:39:56.572Z,10.90
2023-05-10T05:42:05.532Z,11.10
2023-05-10T05:44:14.276Z,11.00
2023-05-10T05:46:22.790Z,11.10
2023-05-10T05:48:32.686Z,11.10
2023-05-10T05:50:41.406Z,11.10
2023-05-10T05:52:52.496Z,11.10
2023-05-10T05:55:01.405Z,11.20
2023-05-10T05:57:10.298Z,11.30
2023-05-10T05:59:19.221Z,11.30
2023-05-10T06:01:28.051Z,11.40
2023-05-10T06:03:36.406Z,11.40
2023-05-10T06:05:44.741Z,11.50
2023-05-10T06:07:55.050Z,11.50
2023-05-10T06:10:04.385Z,11.50
2023-05-10T06:12:13.443Z,11.70
2023-05-10T06:14:23.526Z,11.70
2023-05-10T06:16:32.216Z,11.60
2023-05-10T06:18:40.809Z,11.80
2023-05-10T06:20:49.741Z,11.70
2023-05-10T06:22:59.581Z,11.70
2023-05-10T06:25:09.693Z,11.90
2023-05-10T06:27:18.474Z,12.00
2023-05-10T06:29:27.606Z,12.20
2023-05-10T06:31:36.409Z,12.30
2023-05-10T06:33:45.103Z,12.20
2023-05-10T06:35:53.686Z,12.30
2023-05-10T06:38:03.848Z,12.30
2023-05-10T06:40:13.204Z,12.30
2023-05-10T06:42:21.970Z,12.40
2023-05-10T06:44:30.319Z,12.50
2023-05-10T06:48:49.463Z,12.70
2023-05-10T06:50:58.246Z,12.70
2023-05-10T06:55:19.634Z,13.10
2023-05-10T06:57:31.858Z,13.10
2023-05-10T06:59:41.070Z,13.20
2023-05-10T07:01:49.893Z,13.20
2023-05-10T07:03:58.570Z,13.30
2023-05-10T07:08:28.710Z,13.50
2023-05-10T07:10:37.260Z,13.60
2023-05-10T07:12:46.244Z,13.70
2023-05-10T07:14:54.793Z,13.70
2023-05-10T07:17:03.393Z,13.80
2023-05-10T07:19:12.756Z,13.90
2023-05-10T07:21:21.462Z,13.80
2023-05-10T07:23:31.752Z,14.00
2023-05-10T07:25:40.430Z,14.10
2023-05-10T07:27:49.649Z,14.20
2023-05-10T07:29:58.312Z,14.30
2023-05-10T07:32:07.295Z,14.50
2023-05-10T07:34:16.067Z,14.60
2023-05-10T07:36:24.699Z,14.50
2023-05-10T07:38:35.193Z,14.80
2023-05-10T07:40:43.522Z,14.80
2023-05-10T07:42:51.821Z,14.70
2023-05-10T07:45:00.669Z,14.80
2023-05-10T07:47:09.571Z,15.00
2023-05-10T07:49:18.480Z,15.00
2023-05-10T07:51:27.702Z,15.10
2023-05-10T07:53:37.685Z,15.10
2023-05-10T07:55:46.201Z,15.10
2023-05-10T07:57:54.549Z,15.10
2023-05-10T08:00:03.286Z,15.30
2023-05-10T08:02:11.851Z,15.50
2023-05-10T08:04:20.609Z,15.60
2023-05-10T08:06:32.056Z,15.70
2023-05-10T08:08:42.518Z,15.60
2023-05-10T08:10:51.272Z,15.80
2023-05-10T08:13:00.350Z,15.90
2023-05-10T08:15:10.357Z,16.00
2023-05-10T08:17:19.946Z,15.90
2023-05-10T08:19:29.338Z,16.10
2023-05-10T08:21:38.456Z,16.10
2023-05-10T08:23:48.511Z,16.30
2023-05-10T08:25:56.985Z,16.30
2023-05-10T08:28:05.779Z,16.40
2023-05-10T08:30:15.125Z,16.30
2023-05-10T08:32:23.512Z,16.60
2023-05-10T08:34:32.493Z,16.80
2023-05-10T08:36:41.124Z,17.10
2023-05-10T08:38:53.425Z,17.10
2023-05-10T08:41:04.141Z,17.00
2023-05-10T08:43:15.731Z,16.90
2023-05-10T08:45:26.896Z,16.90
2023-05-10T08:47:36.578Z,17.10
2023-05-10T08:49:47.299Z,17.30
2023-05-10T08:51:58.812Z,17.30
2023-05-10T08:54:09.286Z,17.50
2023-05-10T08:56:19.017Z,17.70
2023-05-10T08:58:28.518Z,17.70
2023-05-10T09:00:38.257Z,17.80
2023-05-10T09:02:48.252Z,17.80
2023-05-10T09:04:57.162Z,17.90
2023-05-10T09:07:06.428Z,17.90
2023-05-10T09:09:17.365Z,18.10
2023-05-10T09:11:26.987Z,18.00
2023-05-10T09:13:36.171Z,18.10
2023-05-10T09:15:45.899Z,18.20
2023-05-10T09:17:55.181Z,18.50
2023-05-10T09:20:05.123Z,18.50
2023-05-10T09:22:13.437Z,18.50
2023-05-10T09:24:28.473Z,18.30
2023-05-10T09:26:38.064Z,18.30
2023-05-10T09:28:54.603Z,18.50
2023-05-10T09:31:03.144Z,18.60
2023-05-10T09:33:11.978Z,18.80
2023-05-10T09:35:22.585Z,18.60
2023-05-10T09:37:32.925Z,18.70
2023-05-10T09:39:43.348Z,18.70
2023-05-10T09:41:51.876Z,18.80
2023-05-10T09:44:00.604Z,19.00
2023-05-10T09:46:12.534Z,18.90
2023-05-10T09:48:21.154Z,18.80
2023-05-10T09:50:30.128Z,19.10
2023-05-10T09:52:50.145Z,19.30
2023-05-10T09:55:00.952Z,19.20
2023-05-10T09:57:22.341Z,19.30
2023-05-10T09:59:31.882Z,19.30
2023-05-10T10:01:40.655Z,19.10
2023-05-10T10:03:49.718Z,19.10
2023-05-10T10:05:58.101Z,19.20
2023-05-10T10:08:07.742Z,19.30
2023-05-10T10:10:18.623Z,19.20
2023-05-10T10:12:27.887Z,19.40
2023-05-10T10:14:37.442Z,19.20
2023-05-10T10:16:55.671Z,19.10
2023-05-10T10:19:14.360Z,19.20
2023-05-10T10:21:23.255Z,19.30
2023-05-10T10:23:31.889Z,19.40
2023-05-10T10:25:42.510Z,19.40
2023-05-10T10:28:00.269Z,19.20
2023-05-10T10:30:19.408Z,19.00
2023-05-10T10:32:38.209Z,19.00
2023-05-10T10:34:47.111Z,19.00
2023-05-10T10:36:57.749Z,19.10
2023-05-10T10:39:11.999Z,19.10
2023-05-10T10:41:33.887Z,19.20
2023-05-10T10:43:42.808Z,19.30
2023-05-10T10:46:13.348Z,19.20
2023-05-10T10:48:25.437Z,19.10
2023-05-10T10:50:45.413Z,19.20
2023-05-10T10:52:54.118Z,18.80
2023-05-10T10:55:05.121Z,19.20
2023-05-10T10:57:15.927Z,19.30
2023-05-10T10:59:30.095Z,19.50
2023-05-10T11:01:38.875Z,19.40
2023-05-10T11:04:23.913Z,19.60
2023-05-10T11:06:34.692Z,19.60
2023-05-10T11:08:47.045Z,19.70
2023-05-10T11:11:05.775Z,19.60
2023-05-10T11:13:15.764Z,19.40
2023-05-10T11:15:32.526Z,19.30
2023-05-10T11:17:41.105Z,19.50
2023-05-10T11:20:11.096Z,19.20
2023-05-10T11:22:19.640Z,19.20
2023-05-10T11:24:30.342Z,19.30
2023-05-10T11:26:39.158Z,19.20
2023-05-10T11:28:51.321Z,19.30
2023-05-10T11:30:59.909Z,19.20
2023-05-10T11:33:09.794Z,19.10
2023-05-10T11:35:18.545Z,18.90
2023-05-10T11:37:33.347Z,19.00
2023-05-10T11:39:48.286Z,18.90
2023-05-10T11:41:57.793Z,18.70
2023-05-10T11:44:07.773Z,18.40
2023-05-10T11:46:16.980Z,18.50
2023-05-10T11:48:25.296Z,18.50
2023-05-10T11:50:33.732Z,18.50
2023-05-10T11:52:42.611Z,18.70
2023-05-10T11:54:54.664Z,18.70
2023-05-10T11:57:03.695Z,18.80
2023-05-10T11:59:16.805Z,18.70
2023-05-10T12:01:25.695Z,18.70
2023-05-10T12:03:35.185Z,18.90
2023-05-10T12:05:44.481Z,18.90
2023-05-10T12:07:52.788Z,19.00
2023-05-10T12:10:09.573Z,19.00
2023-05-10T12:12:19.470Z,18.90
2023-05-10T12:14:29.888Z,18.90
2023-05-10T12:16:38.854Z,18.70
2023-05-10T12:18:47.841Z,18.50
2023-05-10T12:20:56.761Z,18.50
2023-05-10T12:23:06.531Z,18.40
2023-05-10T12:25:15.265Z,18.50
2023-05-10T12:27:23.815Z,18.60
2023-05-10T12:29:34.108Z,18.70
2023-05-10T12:31:55.662Z,18.80
2023-05-10T12:34:04.417Z,18.90
2023-05-10T12:36:14.247Z,18.90
2023-05-10T12:38:31.936Z,18.80
2023-05-10T12:40:40.906Z,18.60
2023-05-10T12:42:50.107Z,18.50
2023-05-10T12:45:00.757Z,18.40
2023-05-10T12:47:10.144Z,18.40
2023-05-10T12:49:20.063Z,18.40
2023-05-10T12:51:28.705Z,18.40
2023-05-10T12:53:37.525Z,18.40
2023-05-10T12:55:46.661Z,18.80
2023-05-10T12:57:55.178Z,18.80
2023-05-10T13:00:06.557Z,18.60
2023-05-10T13:02:15.751Z,18.70
2023-05-10T13:04:24.297Z,18.70
2023-05-10T13:06:33.633Z,18.70
2023-05-10T13:08:42.355Z,18.60
2023-05-10T13:10:51.261Z,18.60
2023-05-10T13:13:00.568Z,18.60
2023-05-10T13:15:12.498Z,18.50
2023-05-10T13:17:21.073Z,18.70
2023-05-10T13:19:29.876Z,18.60
2023-05-10T13:21:38.584Z,18.50
2023-05-10T13:23:47.999Z,18.50
2023-05-10T13:25:56.832Z,18.50
2023-05-10T13:28:05.368Z,19.10
2023-05-10T13:30:15.792Z,18.90
2023-05-10T13:32:24.394Z,18.50
2023-05-10T13:34:33.257Z,18.30
2023-05-10T13:36:41.690Z,18.50
2023-05-10T13:38:50.157Z,18.60
2023-05-10T13:40:58.924Z,18.60
2023-05-10T13:43:07.426Z,19.10
